createdAt,value
2022-12-18T00:02:17.962Z,26.80
2022-12-18T00:04:47.629Z,24.67
2022-12-18T00:07:22.375Z,23.80
2022-12-18T00:09:57.751Z,20.42
2022-12-18T00:12:31.771Z,26.98
2022-12-18T00:15:00.869Z,22.83
2022-12-18T00:17:41.275Z,27.08
2022-12-18T00:20:13.760Z,27.07
2022-12-18T00:22:40.938Z,18.13
2022-12-18T00:25:19.910Z,32.20
2022-12-18T00:27:52.451Z,22.70
2022-12-18T00:30:22.872Z,19.95
2022-12-18T00:32:55.233Z,17.37
2022-12-18T00:36:05.092Z,21.45
2022-12-18T00:38:50.214Z,24.52
2022-12-18T00:41:46.485Z,16.88
2022-12-18T00:44:18.925Z,27.40
2022-12-18T00:46:47.465Z,25.00
2022-12-18T00:49:21.253Z,19.10
2022-12-18T00:51:52.470Z,19.60
2022-12-18T00:54:22.897Z,23.70
2022-12-18T00:56:57.811Z,18.10
2022-12-18T00:59:24.990Z,26.90
2022-12-18T01:02:01.399Z,23.38
2022-12-18T01:04:35.255Z,27.45
2022-12-18T01:07:10.873Z,22.17
2022-12-18T01:09:39.197Z,27.05
2022-12-18T01:12:11.469Z,23.97
2022-12-18T01:14:41.530Z,19.23
2022-12-18T01:17:29.985Z,18.13
2022-12-18T01:20:08.773Z,15.57
2022-12-18T01:22:38.455Z,25.77
2022-12-18T01:25:14.702Z,21.80
2022-12-18T01:27:54.027Z,24.88
2022-12-18T01:30:27.593Z,23.23
2022-12-18T01:33:00.967Z,30.63
2022-12-18T01:35:44.205Z,24.48
2022-12-18T01:38:28.228Z,24.53
2022-12-18T01:41:22.696Z,26.33
2022-12-18T01:44:01.542Z,28.13
2022-12-18T01:46:33.452Z,22.83
2022-12-18T01:49:32.717Z,31.25
2022-12-18T01:52:09.868Z,34.60
2022-12-18T01:54:37.679Z,24.65
2022-12-18T01:58:01.885Z,24.77
2022-12-18T02:00:54.956Z,22.40
2022-12-18T02:03:23.591Z,23.33
2022-12-18T02:06:13.925Z,25.17
2022-12-18T02:08:50.596Z,23.83
2022-12-18T02:11:53.077Z,24.42
2022-12-18T02:14:30.710Z,23.20
2022-12-18T02:17:13.933Z,22.98
2022-12-18T02:20:08.782Z,23.60
2022-12-18T02:22:45.439Z,24.90
2022-12-18T02:25:41.950Z,26.40
2022-12-18T02:28:17.070Z,28.15
2022-12-18T02:30:50.041Z,21.60
2022-12-18T02:33:28.413Z,19.40
2022-12-18T02:36:15.527Z,27.25
2022-12-18T02:38:52.946Z,22.17
2022-12-18T02:41:24.181Z,25.27
2022-12-18T02:44:08.452Z,20.98
2022-12-18T02:46:45.514Z,20.70
2022-12-18T02:49:33.829Z,20.80
2022-12-18T02:52:18.513Z,12.25
2022-12-18T02:54:59.139Z,22.48
2022-12-18T02:58:01.518Z,21.45
2022-12-18T03:00:43.774Z,27.70
2022-12-18T03:03:22.931Z,25.40
2022-12-18T03:06:15.546Z,21.33
2022-12-18T03:08:56.164Z,26.80
2022-12-18T03:11:49.893Z,24.63
2022-12-18T03:14:25.332Z,23.60
2022-12-18T03:17:07.437Z,28.10
2022-12-18T03:19:38.052Z,28.38
2022-12-18T03:22:16.868Z,22.73
2022-12-18T03:24:52.612Z,23.92
2022-12-18T03:27:27.037Z,23.00
2022-12-18T03:30:25.925Z,21.10
2022-12-18T03:33:05.208Z,21.55
2022-12-18T03:35:43.439Z,27.00
2022-12-18T03:38:19.105Z,27.30
2022-12-18T03:40:52.524Z,17.60
2022-12-18T03:43:53.515Z,20.02
2022-12-18T03:46:39.818Z,27.83
2022-12-18T03:49:54.082Z,26.20
2022-12-18T03:53:00.168Z,29.23
2022-12-18T03:55:35.589Z,23.57
2022-12-18T03:58:25.562Z,27.17
2022-12-18T04:01:15.515Z,27.17
2022-12-18T04:03:48.033Z,23.05
2022-12-18T04:06:25.943Z,22.65
2022-12-18T04:09:05.184Z,25.67
2022-12-18T04:11:50.037Z,26.27
2022-12-18T04:14:18.271Z,25.95
2022-12-18T04:16:54.626Z,29.98
2022-12-18T04:19:31.581Z,29.10
2022-12-18T04:22:07.328Z,29.20
2022-12-18T04:24:43.542Z,25.33
2022-12-18T04:27:21.621Z,25.83
2022-12-18T04:29:56.677Z,24.38
2022-12-18T04:32:39.159Z,27.33
2022-12-18T04:35:23.254Z,18.80
2022-12-18T04:38:00.313Z,20.08
2022-12-18T04:40:33.271Z,18.88
2022-12-18T04:43:07.846Z,28.77
2022-12-18T04:45:37.657Z,26.48
2022-12-18T04:48:05.175Z,27.90
2022-12-18T04:50:35.561Z,27.85
2022-12-18T04:53:08.258Z,26.55
2022-12-18T04:55:37.776Z,30.25
2022-12-18T04:58:07.139Z,31.92
2022-12-18T05:00:41.550Z,21.57
2022-12-18T05:03:18.423Z,22.30
2022-12-18T05:05:48.402Z,24.77
2022-12-18T05:08:17.713Z,33.30
2022-12-18T05:10:51.181Z,30.35
2022-12-18T05:13:24.273Z,33.33
2022-12-18T05:15:59.871Z,29.50
2022-12-18T05:18:31.297Z,30.80
2022-12-18T05:20:59.334Z,26.23
2022-12-18T05:23:30.151Z,28.00
2022-12-18T05:26:06.910Z,35.33
2022-12-18T05:29:07.782Z,31.27
2022-12-18T05:31:54.413Z,34.63
2022-12-18T05:34:28.679Z,34.72
2022-12-18T05:36:58.339Z,36.60
2022-12-18T05:39:44.117Z,36.60
2022-12-18T05:42:36.020Z,45.95
2022-12-18T05:45:07.135Z,37.00
2022-12-18T05:47:58.058Z,40.03
2022-12-18T05:50:27.569Z,36.85
2022-12-18T05:53:07.208Z,32.40
2022-12-18T05:55:59.242Z,29.15
2022-12-18T05:58:31.695Z,28.90
2022-12-18T06:01:11.524Z,29.80
2022-12-18T06:03:59.847Z,28.63
2022-12-18T06:06:39.042Z,33.37
2022-12-18T06:09:20.180Z,35.15
2022-12-18T06:11:58.426Z,35.65
2022-12-18T06:14:41.131Z,34.55
2022-12-18T06:17:13.362Z,30.83
2022-12-18T06:19:51.918Z,30.33
2022-12-18T06:22:24.561Z,34.50
2022-12-18T06:24:58.762Z,36.08
2022-12-18T06:27:31.234Z,38.78
2022-12-18T06:30:01.108Z,33.67
2022-12-18T06:32:28.309Z,33.07
2022-12-18T06:35:02.600Z,38.05
2022-12-18T06:37:38.043Z,33.08
2022-12-18T06:40:12.917Z,31.10
2022-12-18T06:42:42.715Z,35.30
2022-12-18T06:45:13.060Z,32.97
2022-12-18T06:47:43.631Z,42.65
2022-12-18T06:50:20.626Z,33.17
2022-12-18T06:52:48.273Z,31.50
2022-12-18T06:55:15.403Z,33.28
2022-12-18T06:57:48.019Z,32.03
2022-12-18T07:00:20.203Z,36.58
2022-12-18T07:02:58.686Z,30.85
2022-12-18T07:05:30.582Z,27.77
2022-12-18T07:08:11.251Z,35.63
2022-12-18T07:10:48.226Z,34.43
2022-12-18T07:13:21.772Z,35.13
2022-12-18T07:15:51.417Z,29.25
2022-12-18T07:18:21.277Z,32.25
2022-12-18T07:20:59.726Z,29.48
2022-12-18T07:23:44.195Z,27.67
2022-12-18T07:26:20.692Z,34.08
2022-12-18T07:28:54.465Z,39.72
2022-12-18T07:31:26.308Z,31.23
2022-12-18T07:33:58.793Z,32.88
2022-12-18T07:36:29.570Z,33.70
2022-12-18T07:39:07.714Z,29.85
2022-12-18T07:41:45.205Z,30.30
2022-12-18T07:44:19.108Z,30.30
2022-12-18T07:46:54.406Z,30.42
2022-12-18T07:49:30.015Z,33.13
2022-12-18T07:52:06.413Z,32.30
2022-12-18T07:54:40.730Z,32.78
2022-12-18T07:57:41.443Z,31.48
2022-12-18T08:00:03.485Z,31.48
2022-12-18T08:02:45.509Z,32.30
2022-12-18T08:05:15.070Z,32.13
2022-12-18T08:07:46.829Z,29.73
2022-12-18T08:10:32.833Z,28.85
2022-12-18T08:13:04.600Z,32.58
2022-12-18T08:15:42.939Z,32.00
2022-12-18T08:18:26.909Z,30.75
2022-12-18T08:20:55.500Z,32.78
2022-12-18T08:23:26.533Z,38.13
2022-12-18T08:25:59.581Z,32.08
2022-12-18T08:28:45.757Z,28.50
2022-12-18T08:31:32.190Z,37.33
2022-12-18T08:34:27.149Z,31.05
2022-12-18T08:36:54.430Z,28.98
2022-12-18T08:39:27.301Z,34.15
2022-12-18T08:42:15.284Z,29.13
2022-12-18T08:44:53.981Z,25.75
2022-12-18T08:47:40.413Z,33.92
2022-12-18T08:50:14.345Z,34.67
2022-12-18T08:52:52.206Z,32.55
2022-12-18T08:55:31.739Z,36.93
2022-12-18T08:58:05.109Z,34.17
2022-12-18T09:00:37.474Z,28.88
2022-12-18T09:03:18.512Z,30.40
2022-12-18T09:05:48.729Z,31.42
2022-12-18T09:08:26.755Z,35.33
2022-12-18T09:10:54.204Z,31.55
2022-12-18T09:13:49.678Z,35.20
2022-12-18T09:16:27.399Z,33.30
2022-12-18T09:19:04.113Z,38.10
2022-12-18T09:21:35.976Z,33.33
2022-12-18T09:24:19.903Z,32.33
2022-12-18T09:26:54.789Z,34.90
2022-12-18T09:29:30.060Z,30.92
2022-12-18T09:32:05.027Z,30.70
2022-12-18T09:34:35.231Z,32.67
2022-12-18T09:37:02.403Z,27.00
2022-12-18T09:39:42.742Z,28.58
2022-12-18T09:42:38.102Z,25.77
2022-12-18T09:45:11.298Z,26.80
2022-12-18T09:47:53.074Z,30.53
2022-12-18T09:50:24.906Z,28.95
2022-12-18T09:52:58.427Z,28.35
2022-12-18T09:55:39.183Z,29.50
2022-12-18T09:58:33.480Z,27.95
2022-12-18T10:01:03.349Z,29.37
2022-12-18T10:03:35.826Z,21.42
2022-12-18T10:06:24.737Z,21.77
2022-12-18T10:09:17.407Z,29.45
2022-12-18T10:12:42.341Z,32.72
2022-12-18T10:15:38.285Z,29.27
2022-12-18T10:18:39.323Z,30.45
2022-12-18T10:21:24.738Z,35.63
2022-12-18T10:24:06.024Z,40.22
2022-12-18T10:26:36.479Z,36.70
2022-12-18T10:29:19.197Z,38.13
2022-12-18T10:31:49.467Z,29.10
2022-12-18T10:34:28.888Z,37.42
2022-12-18T10:37:03.308Z,33.85
2022-12-18T10:39:39.405Z,32.30
2022-12-18T10:42:27.243Z,28.33
2022-12-18T10:45:22.643Z,33.03
2022-12-18T10:47:53.442Z,31.67
2022-12-18T10:53:46.508Z,29.73
2022-12-18T10:56:32.656Z,31.70
2022-12-18T10:59:06.935Z,30.73
2022-12-18T11:01:59.119Z,32.88
2022-12-18T11:04:32.367Z,26.98
2022-12-18T11:07:16.468Z,30.45
2022-12-18T11:10:17.848Z,36.17
2022-12-18T11:12:55.615Z,33.67
2022-12-18T11:19:54.218Z,29.20
2022-12-18T11:22:31.449Z,14.18
2022-12-18T11:28:30.219Z,29.75
2022-12-18T11:31:28.448Z,29.45
2022-12-18T11:34:27.387Z,27.27
2022-12-18T11:37:05.277Z,24.30
2022-12-18T11:39:46.562Z,27.67
2022-12-18T11:42:51.147Z,31.67
2022-12-18T11:45:47.158Z,29.77
2022-12-18T11:48:30.888Z,27.33
2022-12-18T11:51:04.127Z,31.45
2022-12-18T11:53:32.071Z,31.40
2022-12-18T11:56:27.579Z,34.70
2022-12-18T11:59:29.468Z,30.05
2022-12-18T12:02:26.231Z,33.35
2022-12-18T12:05:32.068Z,30.30
2022-12-18T12:08:25.213Z,34.87
2022-12-18T12:11:18.238Z,34.17
2022-12-18T12:14:07.051Z,33.78
2022-12-18T12:16:43.309Z,31.40
2022-12-18T12:19:33.639Z,32.03
2022-12-18T12:22:44.767Z,31.63
2022-12-18T12:25:40.494Z,31.77
2022-12-18T12:28:40.829Z,38.83
2022-12-18T12:31:48.849Z,36.90
2022-12-18T12:34:22.037Z,32.25
2022-12-18T12:37:25.092Z,40.87
2022-12-18T12:39:59.864Z,39.25
2022-12-18T12:43:03.139Z,39.40
2022-12-18T12:46:07.838Z,40.38
2022-12-18T12:48:46.117Z,41.70
2022-12-18T12:51:29.131Z,38.93
2022-12-18T12:54:03.705Z,36.25
2022-12-18T12:56:51.675Z,36.60
2022-12-18T12:59:49.965Z,43.72
2022-12-18T13:02:27.130Z,44.83
2022-12-18T13:05:11.217Z,39.63
2022-12-18T13:08:00.811Z,40.65
2022-12-18T13:10:46.230Z,46.47
2022-12-18T13:13:25.628Z,40.97
2022-12-18T13:16:21.050Z,39.45
2022-12-18T13:18:58.774Z,42.50
2022-12-18T13:21:36.645Z,37.42
2022-12-18T13:24:27.128Z,34.05
2022-12-18T13:27:28.809Z,41.47
2022-12-18T13:29:59.214Z,40.95
2022-12-18T13:32:39.426Z,39.30
2022-12-18T13:35:21.537Z,35.17
2022-12-18T13:37:58.710Z,37.15
2022-12-18T13:40:50.040Z,37.40
2022-12-18T13:46:30.113Z,35.90
2022-12-18T13:49:20.906Z,40.45
2022-12-18T13:51:58.026Z,39.20
2022-12-18T13:54:46.749Z,40.47
2022-12-18T13:57:45.224Z,39.80
2022-12-18T14:00:24.218Z,45.30
2022-12-18T14:03:00.032Z,47.63
2022-12-18T14:05:43.431Z,41.42
2022-12-18T14:08:17.485Z,40.67
2022-12-18T14:10:53.306Z,43.28
2022-12-18T14:13:47.812Z,49.33
2022-12-18T14:16:23.231Z,47.40
2022-12-18T14:19:11.772Z,46.40
2022-12-18T14:21:55.129Z,46.08
2022-12-18T14:24:27.582Z,44.90
2022-12-18T14:26:54.710Z,46.57
2022-12-18T14:29:24.267Z,41.50
2022-12-18T14:32:15.016Z,49.58
2022-12-18T14:35:14.901Z,45.78
2022-12-18T14:37:47.370Z,46.33
2022-12-18T14:40:17.586Z,50.17
2022-12-18T14:42:58.035Z,49.17
2022-12-18T14:45:44.093Z,53.30
2022-12-18T14:48:53.563Z,52.92
2022-12-18T14:51:31.880Z,55.13
2022-12-18T14:54:05.381Z,51.83
2022-12-18T14:56:35.823Z,57.50
2022-12-18T14:59:32.719Z,64.47
2022-12-18T15:02:25.209Z,64.40
2022-12-18T15:05:29.106Z,58.60
2022-12-18T15:08:01.726Z,72.70
2022-12-18T15:10:35.436Z,69.10
2022-12-18T15:13:05.478Z,73.47
2022-12-18T15:15:38.766Z,63.45
2022-12-18T15:18:22.575Z,68.45
2022-12-18T15:21:11.062Z,73.83
2022-12-18T15:23:58.706Z,64.40
2022-12-18T15:27:05.183Z,57.40
2022-12-18T15:29:37.900Z,60.63
2022-12-18T15:32:32.171Z,54.30
2022-12-18T15:35:31.617Z,53.07
2022-12-18T15:38:03.594Z,49.35
2022-12-18T15:40:39.786Z,43.65
2022-12-18T15:43:27.764Z,47.88
2022-12-18T15:46:04.156Z,47.90
2022-12-18T15:48:49.704Z,47.73
2022-12-18T15:51:40.998Z,45.92
2022-12-18T15:54:18.687Z,51.15
2022-12-18T15:57:08.067Z,46.78
2022-12-18T15:59:46.061Z,57.58
2022-12-18T16:02:24.783Z,53.83
2022-12-18T16:04:55.180Z,51.65
2022-12-18T16:07:28.106Z,53.05
2022-12-18T16:10:07.853Z,48.22
2022-12-18T16:12:37.419Z,47.42
2022-12-18T16:15:12.263Z,57.43
2022-12-18T16:17:44.665Z,51.78
2022-12-18T16:20:31.687Z,44.38
2022-12-18T16:23:04.192Z,49.58
2022-12-18T16:25:34.230Z,51.30
2022-12-18T16:28:05.498Z,54.53
2022-12-18T16:30:42.951Z,50.50
2022-12-18T16:36:04.067Z,55.90
2022-12-18T16:38:34.559Z,55.83
2022-12-18T16:41:45.959Z,55.37
2022-12-18T16:44:22.181Z,48.53
2022-12-18T16:47:10.345Z,55.95
2022-12-18T16:49:46.641Z,57.63
2022-12-18T16:52:17.867Z,53.40
2022-12-18T16:54:47.798Z,58.93
2022-12-18T16:57:22.679Z,58.47
2022-12-18T16:59:57.648Z,51.88
2022-12-18T17:02:31.800Z,53.80
2022-12-18T17:05:02.748Z,50.22
2022-12-18T17:07:50.187Z,53.77
2022-12-18T17:10:29.975Z,58.60
2022-12-18T17:12:59.866Z,58.53
2022-12-18T17:15:27.193Z,65.00
2022-12-18T17:17:57.496Z,65.25
2022-12-18T17:20:24.589Z,60.00
2022-12-18T17:22:58.706Z,58.08
2022-12-18T17:25:37.074Z,56.35
2022-12-18T17:28:16.379Z,62.45
2022-12-18T17:30:43.748Z,53.72
2022-12-18T17:33:24.288Z,60.67
2022-12-18T17:35:57.098Z,64.35
2022-12-18T17:38:34.729Z,58.42
2022-12-18T17:41:07.261Z,63.67
2022-12-18T17:43:52.873Z,57.75
2022-12-18T17:46:20.551Z,55.43
2022-12-18T17:48:51.543Z,50.78
2022-12-18T17:51:23.090Z,59.35
2022-12-18T17:54:00.009Z,50.00
2022-12-18T17:56:28.457Z,64.80
2022-12-18T17:58:56.076Z,56.40
2022-12-18T18:01:29.444Z,45.63
2022-12-18T18:04:07.423Z,50.58
2022-12-18T18:06:39.229Z,50.92
2022-12-18T18:09:16.409Z,43.40
2022-12-18T18:12:12.374Z,51.63
2022-12-18T18:14:44.587Z,48.13
2022-12-18T18:17:16.547Z,45.38
2022-12-18T18:19:49.466Z,49.53
2022-12-18T18:22:20.420Z,51.03
2022-12-18T18:24:50.127Z,49.47
2022-12-18T18:27:22.419Z,57.78
2022-12-18T18:29:50.840Z,52.35
2022-12-18T18:32:20.971Z,52.28
2022-12-18T18:34:57.034Z,45.90
2022-12-18T18:37:28.817Z,43.70
2022-12-18T18:39:56.915Z,48.25
2022-12-18T18:42:27.723Z,45.33
2022-12-18T18:44:59.360Z,42.50
2022-12-18T18:47:30.993Z,47.33
2022-12-18T18:50:13.001Z,47.57
2022-12-18T18:52:42.922Z,44.45
2022-12-18T18:55:25.295Z,50.70
2022-12-18T18:57:58.257Z,47.25
2022-12-18T19:00:38.807Z,41.33
2022-12-18T19:03:10.274Z,35.80
2022-12-18T19:05:50.740Z,43.25
2022-12-18T19:08:44.576Z,37.30
2022-12-18T19:11:36.704Z,39.10
2022-12-18T19:14:09.531Z,36.97
2022-12-18T19:16:48.525Z,40.87
2022-12-18T19:19:22.076Z,35.30
2022-12-18T19:21:50.894Z,32.40
2022-12-18T19:24:23.908Z,40.22
2022-12-18T19:27:01.977Z,36.08
2022-12-18T19:29:34.758Z,37.37
2022-12-18T19:32:09.826Z,38.60
2022-12-18T19:34:49.907Z,40.05
2022-12-18T19:37:25.557Z,41.58
2022-12-18T19:39:54.967Z,40.20
2022-12-18T19:42:35.786Z,39.13
2022-12-18T19:45:17.918Z,39.22
2022-12-18T19:48:21.661Z,48.40
2022-12-18T19:50:56.623Z,66.93
2022-12-18T19:53:29.163Z,83.03
2022-12-18T19:56:01.467Z,91.30
2022-12-18T19:58:29.217Z,97.63
2022-12-18T20:01:02.532Z,89.72
2022-12-18T20:03:41.744Z,92.38
2022-12-18T20:06:16.696Z,97.78
2022-12-18T20:08:44.116Z,113.87
2022-12-18T20:11:15.956Z,111.43
2022-12-18T20:13:50.770Z,115.78
2022-12-18T20:16:24.138Z,110.80
2022-12-18T20:18:57.719Z,126.32
2022-12-18T20:21:25.851Z,144.93
2022-12-18T20:24:07.002Z,143.23
2022-12-18T20:26:39.326Z,128.57
2022-12-18T20:29:16.182Z,119.10
2022-12-18T20:31:52.950Z,119.90
2022-12-18T20:34:33.303Z,77.07
2022-12-18T20:37:03.981Z,73.75
2022-12-18T20:39:38.504Z,73.43
2022-12-18T20:42:12.746Z,72.30
2022-12-18T20:44:42.434Z,73.95
2022-12-18T20:47:16.057Z,59.30
2022-12-18T20:49:45.748Z,64.25
2022-12-18T20:52:26.876Z,67.47
2022-12-18T20:54:58.145Z,76.53
2022-12-18T20:57:34.268Z,63.33
2022-12-18T21:00:06.892Z,64.17
2022-12-18T21:02:42.439Z,57.13
2022-12-18T21:05:11.109Z,84.10
2022-12-18T21:07:38.305Z,86.07
2022-12-18T21:10:13.436Z,73.10
2022-12-18T21:13:00.023Z,85.47
2022-12-18T21:15:37.711Z,65.40
2022-12-18T21:18:25.248Z,84.80
2022-12-18T21:21:05.887Z,97.45
2022-12-18T21:23:44.035Z,93.25
2022-12-18T21:26:25.883Z,101.47
2022-12-18T21:29:04.365Z,96.07
2022-12-18T21:31:43.147Z,91.30
2022-12-18T21:34:21.459Z,101.50
2022-12-18T21:36:57.295Z,95.80
2022-12-18T21:39:43.993Z,91.10
2022-12-18T21:42:33.048Z,81.05
2022-12-18T21:45:09.106Z,100.65
2022-12-18T21:47:49.728Z,79.75
2022-12-18T21:50:17.599Z,83.32
2022-12-18T21:52:44.719Z,80.37
2022-12-18T21:55:13.091Z,69.50
2022-12-18T21:57:40.262Z,67.10
2022-12-18T22:00:19.298Z,62.85
2022-12-18T22:03:13.396Z,46.63
2022-12-18T22:05:46.257Z,48.53
2022-12-18T22:08:18.719Z,59.28
2022-12-18T22:10:52.046Z,49.33
2022-12-18T22:13:22.193Z,53.75
2022-12-18T22:16:02.134Z,46.30
2022-12-18T22:18:44.694Z,46.93
2022-12-18T22:21:36.706Z,53.25
2022-12-18T22:24:09.209Z,39.97
2022-12-18T22:26:40.173Z,47.20
2022-12-18T22:29:43.855Z,47.08
2022-12-18T22:32:29.441Z,58.63
2022-12-18T22:35:16.126Z,43.67
2022-12-18T22:37:50.410Z,45.47
2022-12-18T22:40:31.720Z,46.55
2022-12-18T22:43:07.403Z,45.47
2022-12-18T22:45:47.310Z,50.23
2022-12-18T22:48:22.477Z,48.85
2022-12-18T22:50:59.359Z,52.35
2022-12-18T22:53:26.968Z,47.75
2022-12-18T22:56:01.010Z,56.63
2022-12-18T22:58:31.682Z,36.87
2022-12-18T23:01:17.387Z,55.42
2022-12-18T23:04:00.035Z,51.70
2022-12-18T23:06:33.049Z,45.10
2022-12-18T23:09:05.358Z,56.50
2022-12-18T23:11:37.242Z,58.47
2022-12-18T23:14:04.592Z,46.17
2022-12-18T23:16:33.950Z,44.65
2022-12-18T23:19:25.783Z,44.00
2022-12-18T23:22:03.514Z,46.42
2022-12-18T23:24:37.668Z,42.60
2022-12-18T23:27:11.992Z,42.85
2022-12-18T23:29:41.945Z,41.28
2022-12-18T23:32:22.921Z,37.40
2022-12-18T23:34:59.637Z,37.38
2022-12-18T23:37:58.860Z,38.03
2022-12-18T23:40:45.358Z,35.45
2022-12-18T23:43:16.576Z,42.88
2022-12-18T23:45:52.554Z,41.38
2022-12-18T23:48:30.308Z,36.85
2022-12-18T23:51:08.189Z,50.50
2022-12-18T23:53:41.592Z,46.72
2022-12-18T23:56:17.305Z,38.50
2022-12-18T23:58:45.454Z,41.40
